sensor_id;sensor_type;location;lat;lon;timestamp;pressure;altitude;pressure_sealevel;temperature;humidity
47761;BME280;33524;55.434;38.520;2023-02-18T00:01:51;100532.56;;;-4.86;88.03
47761;BME280;33524;55.434;38.520;2023-02-18T00:04:20;100517.19;;;-4.92;87.82
47761;BME280;33524;55.434;38.520;2023-02-18T00:06:48;100529.19;;;-4.90;87.93
47761;BME280;33524;55.434;38.520;2023-02-18T00:09:18;100523.16;;;-4.87;87.90
47761;BME280;33524;55.434;38.520;2023-02-18T00:11:47;100514.69;;;-4.98;88.01
47761;BME280;33524;55.434;38.520;2023-02-18T00:14:15;100525.81;;;-4.98;88.33
47761;BME280;33524;55.434;38.520;2023-02-18T00:16:44;100516.44;;;-5.03;88.05
47761;BME280;33524;55.434;38.520;2023-02-18T00:19:16;100508.75;;;-5.02;88.14
47761;BME280;33524;55.434;38.520;2023-02-18T00:21:45;100508.69;;;-4.99;88.02
47761;BME280;33524;55.434;38.520;2023-02-18T00:24:14;100509.59;;;-5.03;88.31
47761;BME280;33524;55.434;38.520;2023-02-18T00:26:43;100502.78;;;-5.05;88.14
47761;BME280;33524;55.434;38.520;2023-02-18T00:29:11;100495.91;;;-5.03;88.32
47761;BME280;33524;55.434;38.520;2023-02-18T00:31:40;100496.75;;;-5.01;88.10
47761;BME280;33524;55.434;38.520;2023-02-18T00:34:09;100478.84;;;-5.06;88.20
47761;BME280;33524;55.434;38.520;2023-02-18T00:36:38;100482.28;;;-5.12;88.18
47761;BME280;33524;55.434;38.520;2023-02-18T00:39:07;100479.69;;;-5.04;88.33
47761;BME280;33524;55.434;38.520;2023-02-18T00:41:36;100481.41;;;-5.08;88.28
47761;BME280;33524;55.434;38.520;2023-02-18T00:44:05;100476.31;;;-5.12;88.11
47761;BME280;33524;55.434;38.520;2023-02-18T00:46:34;100477.13;;;-5.09;88.13
47761;BME280;33524;55.434;38.520;2023-02-18T00:49:03;100475.47;;;-5.16;88.34
47761;BME280;33524;55.434;38.520;2023-02-18T00:51:32;100473.75;;;-5.12;88.09
47761;BME280;33524;55.434;38.520;2023-02-18T00:54:01;100457.66;;;-5.34;87.42
47761;BME280;33524;55.434;38.520;2023-02-18T00:56:30;100467.75;;;-5.13;88.19
47761;BME280;33524;55.434;38.520;2023-02-18T00:58:58;100466.12;;;-5.23;87.89
47761;BME280;33524;55.434;38.520;2023-02-18T01:01:27;100468.72;;;-5.28;88.43
47761;BME280;33524;55.434;38.520;2023-02-18T01:03:55;100471.34;;;-5.35;88.55
47761;BME280;33524;55.434;38.520;2023-02-18T01:06:22;100454.41;;;-5.61;88.00
47761;BME280;33524;55.434;38.520;2023-02-18T01:08:51;100462.00;;;-5.49;88.83
47761;BME280;33524;55.434;38.520;2023-02-18T01:11:19;100462.75;;;-5.30;88.80
47761;BME280;33524;55.434;38.520;2023-02-18T01:13:47;100450.84;;;-5.37;88.31
47761;BME280;33524;55.434;38.520;2023-02-18T01:16:15;100445.09;;;-5.80;86.43
47761;BME280;33524;55.434;38.520;2023-02-18T01:18:45;100435.84;;;-6.03;87.76
47761;BME280;33524;55.434;38.520;2023-02-18T01:21:13;100439.28;;;-6.05;88.18
47761;BME280;33524;55.434;38.520;2023-02-18T01:23:41;100444.00;;;-5.36;89.38
47761;BME280;33524;55.434;38.520;2023-02-18T01:26:09;100434.00;;;-5.81;88.50
47761;BME280;33524;55.434;38.520;2023-02-18T01:28:39;100433.09;;;-5.69;88.60
47761;BME280;33524;55.434;38.520;2023-02-18T01:31:11;100433.31;;;-6.11;89.45
47761;BME280;33524;55.434;38.520;2023-02-18T01:33:40;100419.56;;;-5.93;89.15
47761;BME280;33524;55.434;38.520;2023-02-18T01:36:08;100416.91;;;-5.74;88.80
47761;BME280;33524;55.434;38.520;2023-02-18T01:38:38;100416.78;;;-5.56;89.60
47761;BME280;33524;55.434;38.520;2023-02-18T01:41:06;100418.78;;;-6.01;87.54
47761;BME280;33524;55.434;38.520;2023-02-18T01:43:35;100419.84;;;-7.10;83.00
47761;BME280;33524;55.434;38.520;2023-02-18T01:46:14;100421.47;;;-6.50;88.75
47761;BME280;33524;55.434;38.520;2023-02-18T01:51:40;100427.47;;;-9.26;82.18
47761;BME280;33524;55.434;38.520;2023-02-18T01:54:24;100427.16;;;-9.55;84.43
47761;BME280;33524;55.434;38.520;2023-02-18T01:57:03;100419.25;;;-9.84;85.55
47761;BME280;33524;55.434;38.520;2023-02-18T01:59:45;100414.13;;;-9.87;86.56
47761;BME280;33524;55.434;38.520;2023-02-18T02:02:17;100404.00;;;-8.82;89.65
47761;BME280;33524;55.434;38.520;2023-02-18T02:04:48;100413.59;;;-9.59;86.30
47761;BME280;33524;55.434;38.520;2023-02-18T02:07:21;100403.47;;;-9.49;88.78
47761;BME280;33524;55.434;38.520;2023-02-18T02:09:57;100406.47;;;-8.96;90.11
47761;BME280;33524;55.434;38.520;2023-02-18T02:18:33;100388.94;;;-8.29;89.47
47761;BME280;33524;55.434;38.520;2023-02-18T02:21:42;100381.28;;;-8.45;88.51
47761;BME280;33524;55.434;38.520;2023-02-18T02:24:50;100379.81;;;-7.11;92.60
47761;BME280;33524;55.434;38.520;2023-02-18T02:33:00;100354.16;;;-6.63;87.54
47761;BME280;33524;55.434;38.520;2023-02-18T02:41:31;100343.84;;;-6.41;89.25
47761;BME280;33524;55.434;38.520;2023-02-18T02:44:19;100340.75;;;-5.54;90.42
47761;BME280;33524;55.434;38.520;2023-02-18T02:46:51;100337.31;;;-5.50;87.65
47761;BME280;33524;55.434;38.520;2023-02-18T02:50:11;100339.84;;;-5.45;87.73
47761;BME280;33524;55.434;38.520;2023-02-18T02:52:44;100323.38;;;-5.21;88.09
47761;BME280;33524;55.434;38.520;2023-02-18T02:55:14;100326.34;;;-5.70;86.24
47761;BME280;33524;55.434;38.520;2023-02-18T02:57:48;100327.09;;;-5.56;88.09
47761;BME280;33524;55.434;38.520;2023-02-18T03:03:16;100307.44;;;-5.54;87.42
47761;BME280;33524;55.434;38.520;2023-02-18T03:08:56;100310.91;;;-5.61;87.33
47761;BME280;33524;55.434;38.520;2023-02-18T03:11:42;100311.22;;;-6.02;87.52
47761;BME280;33524;55.434;38.520;2023-02-18T03:17:00;100306.66;;;-5.65;88.34
47761;BME280;33524;55.434;38.520;2023-02-18T03:19:37;100303.31;;;-5.70;88.20
47761;BME280;33524;55.434;38.520;2023-02-18T03:22:22;100300.22;;;-6.15;86.97
47761;BME280;33524;55.434;38.520;2023-02-18T03:24:55;100293.28;;;-6.01;88.33
47761;BME280;33524;55.434;38.520;2023-02-18T03:27:43;100282.66;;;-5.52;88.47
47761;BME280;33524;55.434;38.520;2023-02-18T03:33:07;100271.69;;;-5.68;86.31
47761;BME280;33524;55.434;38.520;2023-02-18T03:35:36;100274.03;;;-5.41;87.51
47761;BME280;33524;55.434;38.520;2023-02-18T03:38:17;100272.00;;;-6.07;87.63
47761;BME280;33524;55.434;38.520;2023-02-18T03:40:50;100258.66;;;-5.41;87.96
47761;BME280;33524;55.434;38.520;2023-02-18T03:43:19;100251.13;;;-5.63;86.29
47761;BME280;33524;55.434;38.520;2023-02-18T03:45:47;100252.59;;;-5.36;87.58
47761;BME280;33524;55.434;38.520;2023-02-18T03:48:15;100248.94;;;-6.03;87.38
47761;BME280;33524;55.434;38.520;2023-02-18T03:50:43;100254.00;;;-5.97;87.43
47761;BME280;33524;55.434;38.520;2023-02-18T03:53:12;100255.88;;;-6.23;87.70
47761;BME280;33524;55.434;38.520;2023-02-18T03:55:40;100243.00;;;-6.11;88.79
47761;BME280;33524;55.434;38.520;2023-02-18T03:58:09;100240.59;;;-5.31;88.43
47761;BME280;33524;55.434;38.520;2023-02-18T04:00:37;100227.06;;;-5.43;88.55
47761;BME280;33524;55.434;38.520;2023-02-18T04:03:05;100231.53;;;-5.69;87.06
47761;BME280;33524;55.434;38.520;2023-02-18T04:05:33;100233.34;;;-5.80;88.06
47761;BME280;33524;55.434;38.520;2023-02-18T04:08:01;100229.91;;;-5.77;88.08
47761;BME280;33524;55.434;38.520;2023-02-18T04:10:29;100231.78;;;-5.95;88.21
47761;BME280;33524;55.434;38.520;2023-02-18T04:12:57;100216.53;;;-6.10;88.63
47761;BME280;33524;55.434;38.520;2023-02-18T04:15:25;100212.44;;;-5.35;88.59
47761;BME280;33524;55.434;38.520;2023-02-18T04:17:53;100220.84;;;-5.22;87.57
47761;BME280;33524;55.434;38.520;2023-02-18T04:20:21;100203.63;;;-5.13;87.09
47761;BME280;33524;55.434;38.520;2023-02-18T04:22:49;100180.03;;;-5.41;86.05
47761;BME280;33524;55.434;38.520;2023-02-18T04:25:17;100209.13;;;-5.45;87.21
47761;BME280;33524;55.434;38.520;2023-02-18T04:27:48;100200.28;;;-5.16;87.48
47761;BME280;33524;55.434;38.520;2023-02-18T04:30:20;100191.97;;;-5.38;86.50
47761;BME280;33524;55.434;38.520;2023-02-18T04:32:48;100186.06;;;-5.45;86.08
47761;BME280;33524;55.434;38.520;2023-02-18T04:35:16;100187.31;;;-5.04;86.36
47761;BME280;33524;55.434;38.520;2023-02-18T04:37:44;100185.69;;;-5.13;86.23
47761;BME280;33524;55.434;38.520;2023-02-18T04:40:12;100183.94;;;-5.08;86.31
47761;BME280;33524;55.434;38.520;2023-02-18T04:42:40;100167.47;;;-5.65;85.40
47761;BME280;33524;55.434;38.520;2023-02-18T04:45:11;100184.19;;;-5.29;87.36
47761;BME280;33524;55.434;38.520;2023-02-18T04:47:39;100176.41;;;-5.23;86.39
47761;BME280;33524;55.434;38.520;2023-02-18T04:50:07;100151.94;;;-5.50;86.46
47761;BME280;33524;55.434;38.520;2023-02-18T04:52:35;100165.28;;;-5.22;86.90
47761;BME280;33524;55.434;38.520;2023-02-18T04:55:05;100168.00;;;-5.34;87.21
47761;BME280;33524;55.434;38.520;2023-02-18T04:57:36;100155.44;;;-5.59;85.72
47761;BME280;33524;55.434;38.520;2023-02-18T05:00:09;100156.91;;;-6.23;86.33
47761;BME280;33524;55.434;38.520;2023-02-18T05:02:41;100158.50;;;-5.24;87.60
47761;BME280;33524;55.434;38.520;2023-02-18T05:05:10;100149.34;;;-5.45;86.21
47761;BME280;33524;55.434;38.520;2023-02-18T05:07:38;100148.56;;;-5.54;86.14
47761;BME280;33524;55.434;38.520;2023-02-18T05:10:14;100155.06;;;-5.23;87.04
47761;BME280;33524;55.434;38.520;2023-02-18T05:12:43;100146.25;;;-5.78;86.08
47761;BME280;33524;55.434;38.520;2023-02-18T05:15:11;100146.94;;;-5.62;87.46
47761;BME280;33524;55.434;38.520;2023-02-18T05:17:38;100137.28;;;-5.37;86.84
47761;BME280;33524;55.434;38.520;2023-02-18T05:20:07;100137.78;;;-5.09;87.14
47761;BME280;33524;55.434;38.520;2023-02-18T05:22:36;100129.34;;;-5.17;87.19
47761;BME280;33524;55.434;38.520;2023-02-18T05:25:05;100133.06;;;-5.43;85.88
47761;BME280;33524;55.434;38.520;2023-02-18T05:27:33;100124.87;;;-5.03;86.25
47761;BME280;33524;55.434;38.520;2023-02-18T05:30:01;100123.28;;;-5.12;84.96
47761;BME280;33524;55.434;38.520;2023-02-18T05:32:30;100122.25;;;-5.71;86.31
47761;BME280;33524;55.434;38.520;2023-02-18T05:34:58;100117.84;;;-5.58;86.21
47761;BME280;33524;55.434;38.520;2023-02-18T05:37:26;100116.91;;;-5.50;86.98
47761;BME280;33524;55.434;38.520;2023-02-18T05:39:54;100114.69;;;-5.06;86.03
47761;BME280;33524;55.434;38.520;2023-02-18T05:42:22;100110.69;;;-5.29;86.02
47761;BME280;33524;55.434;38.520;2023-02-18T05:44:50;100107.00;;;-5.06;85.67
47761;BME280;33524;55.434;38.520;2023-02-18T05:47:18;100099.06;;;-4.89;84.64
47761;BME280;33524;55.434;38.520;2023-02-18T05:49:46;100093.56;;;-5.27;85.86
47761;BME280;33524;55.434;38.520;2023-02-18T05:52:14;100089.88;;;-5.07;86.21
47761;BME280;33524;55.434;38.520;2023-02-18T05:54:41;100089.78;;;-4.98;85.04
47761;BME280;33524;55.434;38.520;2023-02-18T05:57:13;100077.72;;;-4.91;85.34
47761;BME280;33524;55.434;38.520;2023-02-18T05:59:41;100084.34;;;-4.78;84.32
47761;BME280;33524;55.434;38.520;2023-02-18T06:02:09;100077.66;;;-4.88;84.29
47761;BME280;33524;55.434;38.520;2023-02-18T06:04:41;100075.50;;;-5.19;85.14
47761;BME280;33524;55.434;38.520;2023-02-18T06:07:08;100062.44;;;-5.00;85.34
47761;BME280;33524;55.434;38.520;2023-02-18T06:09:36;100066.63;;;-4.93;85.16
47761;BME280;33524;55.434;38.520;2023-02-18T06:12:05;100067.13;;;-5.29;85.76
47761;BME280;33524;55.434;38.520;2023-02-18T06:14:33;100044.66;;;-5.13;85.97
47761;BME280;33524;55.434;38.520;2023-02-18T06:17:11;100054.91;;;-5.13;86.07
47761;BME280;33524;55.434;38.520;2023-02-18T06:19:42;100049.63;;;-5.00;86.04
47761;BME280;33524;55.434;38.520;2023-02-18T06:22:10;100041.81;;;-4.93;86.06
47761;BME280;33524;55.434;38.520;2023-02-18T06:24:38;100047.69;;;-4.84;85.45
47761;BME280;33524;55.434;38.520;2023-02-18T06:27:06;100037.22;;;-4.72;84.04
47761;BME280;33524;55.434;38.520;2023-02-18T06:29:37;100036.13;;;-5.12;85.50
47761;BME280;33524;55.434;38.520;2023-02-18T06:32:05;100031.28;;;-4.76;85.05
47761;BME280;33524;55.434;38.520;2023-02-18T06:34:34;100031.56;;;-4.94;83.93
47761;BME280;33524;55.434;38.520;2023-02-18T06:37:01;100026.34;;;-4.88;84.11
47761;BME280;33524;55.434;38.520;2023-02-18T06:39:29;100022.38;;;-5.06;84.38
47761;BME280;33524;55.434;38.520;2023-02-18T06:41:57;100018.81;;;-4.97;85.06
47761;BME280;33524;55.434;38.520;2023-02-18T06:44:29;100007.38;;;-4.78;84.27
47761;BME280;33524;55.434;38.520;2023-02-18T06:46:58;100010.22;;;-4.96;85.97
47761;BME280;33524;55.434;38.520;2023-02-18T06:49:29;100004.50;;;-4.59;83.99
47761;BME280;33524;55.434;38.520;2023-02-18T06:51:57;100003.13;;;-4.77;84.34
47761;BME280;33524;55.434;38.520;2023-02-18T06:54:25;99999.66;;;-4.75;85.25
47761;BME280;33524;55.434;38.520;2023-02-18T06:56:53;99994.41;;;-4.69;84.60
47761;BME280;33524;55.434;38.520;2023-02-18T06:59:22;100003.66;;;-4.58;83.35
47761;BME280;33524;55.434;38.520;2023-02-18T07:01:49;100001.19;;;-4.64;84.77
47761;BME280;33524;55.434;38.520;2023-02-18T07:04:17;99990.72;;;-4.52;84.08
47761;BME280;33524;55.434;38.520;2023-02-18T07:06:46;99994.03;;;-4.47;82.55
47761;BME280;33524;55.434;38.520;2023-02-18T07:09:13;99890.72;;;-5.07;82.94
47761;BME280;33524;55.434;38.520;2023-02-18T07:11:41;99984.06;;;-4.64;83.89
47761;BME280;33524;55.434;38.520;2023-02-18T07:14:10;99962.91;;;-4.77;85.42
47761;BME280;33524;55.434;38.520;2023-02-18T07:16:37;99983.88;;;-4.53;84.97
47761;BME280;33524;55.434;38.520;2023-02-18T07:19:05;99976.78;;;-4.39;84.24
47761;BME280;33524;55.434;38.520;2023-02-18T07:21:33;99975.94;;;-4.38;84.67
47761;BME280;33524;55.434;38.520;2023-02-18T07:24:01;99963.03;;;-4.35;84.23
47761;BME280;33524;55.434;38.520;2023-02-18T07:26:29;99962.91;;;-4.29;82.77
47761;BME280;33524;55.434;38.520;2023-02-18T07:28:57;99961.22;;;-4.30;83.85
47761;BME280;33524;55.434;38.520;2023-02-18T07:31:25;99951.03;;;-4.34;84.91
47761;BME280;33524;55.434;38.520;2023-02-18T07:33:53;99940.63;;;-4.27;83.46
47761;BME280;33524;55.434;38.520;2023-02-18T07:36:21;99944.84;;;-4.24;83.90
47761;BME280;33524;55.434;38.520;2023-02-18T07:38:49;99929.28;;;-4.16;84.13
47761;BME280;33524;55.434;38.520;2023-02-18T07:41:20;99916.66;;;-4.26;83.79
47761;BME280;33524;55.434;38.520;2023-02-18T07:43:49;99925.00;;;-4.16;83.24
47761;BME280;33524;55.434;38.520;2023-02-18T07:46:20;99927.66;;;-4.20;81.83
47761;BME280;33524;55.434;38.520;2023-02-18T07:48:48;99917.97;;;-4.08;80.89
47761;BME280;33524;55.434;38.520;2023-02-18T07:51:16;99915.50;;;-4.11;81.45
47761;BME280;33524;55.434;38.520;2023-02-18T07:53:44;99909.34;;;-4.03;83.22
47761;BME280;33524;55.434;38.520;2023-02-18T07:56:12;99899.84;;;-3.98;81.86
47761;BME280;33524;55.434;38.520;2023-02-18T07:58:40;99902.41;;;-3.98;83.37
47761;BME280;33524;55.434;38.520;2023-02-18T08:01:13;99903.13;;;-3.93;80.49
47761;BME280;33524;55.434;38.520;2023-02-18T08:03:41;99888.72;;;-3.99;81.79
47761;BME280;33524;55.434;38.520;2023-02-18T08:06:21;99886.97;;;-3.97;83.26
47761;BME280;33524;55.434;38.520;2023-02-18T08:08:50;99866.59;;;-4.06;81.05
47761;BME280;33524;55.434;38.520;2023-02-18T08:11:18;99880.59;;;-3.80;82.33
47761;BME280;33524;55.434;38.520;2023-02-18T08:13:47;99870.25;;;-3.77;80.56
47761;BME280;33524;55.434;38.520;2023-02-18T08:16:17;99867.00;;;-3.86;80.37
47761;BME280;33524;55.434;38.520;2023-02-18T08:18:46;99868.66;;;-3.83;80.77
47761;BME280;33524;55.434;38.520;2023-02-18T08:21:19;99864.37;;;-3.82;80.12
47761;BME280;33524;55.434;38.520;2023-02-18T08:23:47;99862.56;;;-3.77;81.43
47761;BME280;33524;55.434;38.520;2023-02-18T08:26:16;99855.66;;;-3.75;80.36
47761;BME280;33524;55.434;38.520;2023-02-18T08:28:46;99856.37;;;-3.70;79.97
47761;BME280;33524;55.434;38.520;2023-02-18T08:31:21;99848.25;;;-3.52;81.66
47761;BME280;33524;55.434;38.520;2023-02-18T08:33:50;99839.56;;;-3.48;80.24
47761;BME280;33524;55.434;38.520;2023-02-18T08:36:22;99841.06;;;-3.37;81.56
47761;BME280;33524;55.434;38.520;2023-02-18T08:38:50;99831.63;;;-3.37;80.00
47761;BME280;33524;55.434;38.520;2023-02-18T08:41:19;99836.81;;;-3.38;81.27
47761;BME280;33524;55.434;38.520;2023-02-18T08:43:47;99828.41;;;-3.45;81.48
47761;BME280;33524;55.434;38.520;2023-02-18T08:46:16;99832.28;;;-3.29;81.12
47761;BME280;33524;55.434;38.520;2023-02-18T08:49:02;99827.47;;;-3.08;84.59
47761;BME280;33524;55.434;38.520;2023-02-18T08:51:32;99814.03;;;-3.19;80.55
47761;BME280;33524;55.434;38.520;2023-02-18T08:54:00;99809.41;;;-3.07;80.67
47761;BME280;33524;55.434;38.520;2023-02-18T08:56:27;99811.19;;;-3.09;79.38
47761;BME280;33524;55.434;38.520;2023-02-18T08:58:56;99789.47;;;-3.31;79.03
47761;BME280;33524;55.434;38.520;2023-02-18T09:01:24;99797.81;;;-3.21;78.28
47761;BME280;33524;55.434;38.520;2023-02-18T09:03:52;99790.38;;;-3.32;77.59
47761;BME280;33524;55.434;38.520;2023-02-18T09:06:21;99790.88;;;-3.18;78.27
47761;BME280;33524;55.434;38.520;2023-02-18T09:08:49;99785.72;;;-3.18;78.44
47761;BME280;33524;55.434;38.520;2023-02-18T09:11:17;99775.94;;;-3.05;78.48
47761;BME280;33524;55.434;38.520;2023-02-18T09:13:46;99768.12;;;-3.02;79.21
47761;BME280;33524;55.434;38.520;2023-02-18T09:16:31;99765.84;;;-3.13;78.10
47761;BME280;33524;55.434;38.520;2023-02-18T09:18:59;99776.94;;;-3.11;78.29
47761;BME280;33524;55.434;38.520;2023-02-18T09:21:27;99761.53;;;-3.12;77.61
47761;BME280;33524;55.434;38.520;2023-02-18T09:23:54;99758.22;;;-3.16;77.78
47761;BME280;33524;55.434;38.520;2023-02-18T09:26:23;99749.63;;;-3.15;77.90
47761;BME280;33524;55.434;38.520;2023-02-18T09:28:53;99750.09;;;-3.00;77.01
47761;BME280;33524;55.434;38.520;2023-02-18T09:31:25;99747.44;;;-2.97;77.12
47761;BME280;33524;55.434;38.520;2023-02-18T09:33:58;99737.97;;;-2.95;76.61
47761;BME280;33524;55.434;38.520;2023-02-18T09:36:27;99732.81;;;-2.95;77.66
47761;BME280;33524;55.434;38.520;2023-02-18T09:38:55;99726.97;;;-3.02;77.38
47761;BME280;33524;55.434;38.520;2023-02-18T09:41:45;99734.59;;;-2.97;76.04
47761;BME280;33524;55.434;38.520;2023-02-18T09:47:04;99714.62;;;-2.89;75.83
47761;BME280;33524;55.434;38.520;2023-02-18T09:49:54;99706.94;;;-2.91;76.30
47761;BME280;33524;55.434;38.520;2023-02-18T09:52:28;99699.88;;;-2.84;76.43
47761;BME280;33524;55.434;38.520;2023-02-18T09:54:58;99705.84;;;-2.82;77.87
47761;BME280;33524;55.434;38.520;2023-02-18T09:57:41;99695.13;;;-2.67;75.27
47761;BME280;33524;55.434;38.520;2023-02-18T10:00:34;99692.94;;;-2.80;76.11
47761;BME280;33524;55.434;38.520;2023-02-18T10:03:23;99683.47;;;-2.80;75.11
47761;BME280;33524;55.434;38.520;2023-02-18T10:06:01;99684.06;;;-2.70;79.47
47761;BME280;33524;55.434;38.520;2023-02-18T10:08:39;99684.66;;;-2.62;75.16
47761;BME280;33524;55.434;38.520;2023-02-18T10:11:12;99677.38;;;-2.77;75.35
47761;BME280;33524;55.434;38.520;2023-02-18T10:13:43;99671.31;;;-2.75;77.17
47761;BME280;33524;55.434;38.520;2023-02-18T10:16:16;99666.19;;;-2.75;75.48
47761;BME280;33524;55.434;38.520;2023-02-18T10:18:47;99670.34;;;-2.71;75.10
47761;BME280;33524;55.434;38.520;2023-02-18T10:21:23;99660.25;;;-2.50;75.20
47761;BME280;33524;55.434;38.520;2023-02-18T10:23:58;99667.81;;;-2.44;74.58
47761;BME280;33524;55.434;38.520;2023-02-18T10:26:30;99651.28;;;-2.37;76.37
47761;BME280;33524;55.434;38.520;2023-02-18T10:29:00;99654.88;;;-2.42;75.92
47761;BME280;33524;55.434;38.520;2023-02-18T10:32:06;99646.75;;;-2.57;74.70
47761;BME280;33524;55.434;38.520;2023-02-18T10:34:48;99645.53;;;-2.45;73.64
47761;BME280;33524;55.434;38.520;2023-02-18T10:40:38;99633.34;;;-2.13;73.79
47761;BME280;33524;55.434;38.520;2023-02-18T10:46:29;99619.03;;;-1.95;74.96
47761;BME280;33524;55.434;38.520;2023-02-18T10:51:47;99606.25;;;-1.98;73.30
47761;BME280;33524;55.434;38.520;2023-02-18T10:54:15;99598.09;;;-1.61;71.98
47761;BME280;33524;55.434;38.520;2023-02-18T10:56:47;99595.75;;;-1.44;71.55
47761;BME280;33524;55.434;38.520;2023-02-18T10:59:29;99589.00;;;-1.71;73.17
47761;BME280;33524;55.434;38.520;2023-02-18T11:02:02;99567.94;;;-2.09;73.02
47761;BME280;33524;55.434;38.520;2023-02-18T11:04:50;99582.50;;;-2.07;73.96
47761;BME280;33524;55.434;38.520;2023-02-18T11:07:21;99578.88;;;-2.28;74.04
47761;BME280;33524;55.434;38.520;2023-02-18T11:09:52;99576.44;;;-2.32;72.70
47761;BME280;33524;55.434;38.520;2023-02-18T11:12:25;99567.44;;;-1.94;75.03
47761;BME280;33524;55.434;38.520;2023-02-18T11:15:20;99563.28;;;-1.98;73.26
47761;BME280;33524;55.434;38.520;2023-02-18T11:17:54;99575.69;;;-2.09;72.95
47761;BME280;33524;55.434;38.520;2023-02-18T11:20:26;99563.34;;;-1.99;73.82
47761;BME280;33524;55.434;38.520;2023-02-18T11:25:35;99567.47;;;-2.20;72.90
47761;BME280;33524;55.434;38.520;2023-02-18T11:30:45;99555.62;;;-2.26;72.71
47761;BME280;33524;55.434;38.520;2023-02-18T11:33:18;99552.44;;;-2.33;72.70
47761;BME280;33524;55.434;38.520;2023-02-18T11:35:56;99541.44;;;-2.38;73.05
47761;BME280;33524;55.434;38.520;2023-02-18T11:38:28;99536.69;;;-2.50;72.58
47761;BME280;33524;55.434;38.520;2023-02-18T11:41:14;99537.63;;;-2.53;73.02
47761;BME280;33524;55.434;38.520;2023-02-18T11:43:50;99533.91;;;-2.44;73.37
47761;BME280;33524;55.434;38.520;2023-02-18T11:46:24;99522.97;;;-2.51;72.62
47761;BME280;33524;55.434;38.520;2023-02-18T11:48:54;99527.44;;;-2.56;73.31
47761;BME280;33524;55.434;38.520;2023-02-18T11:51:25;99528.16;;;-2.52;73.16
47761;BME280;33524;55.434;38.520;2023-02-18T11:53:57;99521.16;;;-2.47;72.83
47761;BME280;33524;55.434;38.520;2023-02-18T11:56:29;99521.03;;;-2.44;72.80
47761;BME280;33524;55.434;38.520;2023-02-18T11:58:58;99517.38;;;-2.37;73.08
47761;BME280;33524;55.434;38.520;2023-02-18T12:01:44;99500.22;;;-2.38;72.75
47761;BME280;33524;55.434;38.520;2023-02-18T12:04:37;99484.97;;;-2.44;73.88
47761;BME280;33524;55.434;38.520;2023-02-18T12:07:21;99502.00;;;-2.40;73.25
47761;BME280;33524;55.434;38.520;2023-02-18T12:10:02;99493.38;;;-2.37;72.57
47761;BME280;33524;55.434;38.520;2023-02-18T12:12:37;99485.78;;;-2.42;73.82
47761;BME280;33524;55.434;38.520;2023-02-18T12:15:11;99482.59;;;-2.50;72.56
47761;BME280;33524;55.434;38.520;2023-02-18T12:18:03;99485.38;;;-2.56;73.51
47761;BME280;33524;55.434;38.520;2023-02-18T12:26:14;99470.06;;;-2.59;72.75
47761;BME280;33524;55.434;38.520;2023-02-18T12:34:38;99469.59;;;-2.71;73.00
47761;BME280;33524;55.434;38.520;2023-02-18T12:42:28;99473.03;;;-2.72;73.71
47761;BME280;33524;55.434;38.520;2023-02-18T12:45:37;99459.09;;;-2.65;74.10
47761;BME280;33524;55.434;38.520;2023-02-18T12:48:48;99451.13;;;-2.58;73.79
47761;BME280;33524;55.434;38.520;2023-02-18T12:51:36;99446.22;;;-2.65;73.42
47761;BME280;33524;55.434;38.520;2023-02-18T12:57:12;99441.53;;;-2.53;73.90
47761;BME280;33524;55.434;38.520;2023-02-18T13:03:37;99425.19;;;-2.52;73.59
47761;BME280;33524;55.434;38.520;2023-02-18T13:09:24;99420.69;;;-2.71;73.76
47761;BME280;33524;55.434;38.520;2023-02-18T13:14:58;99396.94;;;-2.79;74.71
47761;BME280;33524;55.434;38.520;2023-02-18T13:17:36;99403.19;;;-2.61;74.57
47761;BME280;33524;55.434;38.520;2023-02-18T13:22:45;99405.97;;;-2.67;74.80
47761;BME280;33524;55.434;38.520;2023-02-18T13:25:17;99404.72;;;-2.55;73.74
47761;BME280;33524;55.434;38.520;2023-02-18T13:30:46;99396.50;;;-2.92;75.22
47761;BME280;33524;55.434;38.520;2023-02-18T13:40:57;99390.50;;;-2.92;75.23
47761;BME280;33524;55.434;38.520;2023-02-18T13:46:24;99399.25;;;-3.25;77.31
47761;BME280;33524;55.434;38.520;2023-02-18T13:51:30;99391.03;;;-3.08;76.12
47761;BME280;33524;55.434;38.520;2023-02-18T13:56:54;99382.19;;;-3.00;75.79
47761;BME280;33524;55.434;38.520;2023-02-18T13:59:34;99389.13;;;-3.02;76.51
47761;BME280;33524;55.434;38.520;2023-02-18T14:07:43;99365.72;;;-2.95;75.96
47761;BME280;33524;55.434;38.520;2023-02-18T14:18:24;99361.94;;;-3.10;75.90
47761;BME280;33524;55.434;38.520;2023-02-18T14:21:49;99349.50;;;-2.97;75.69
47761;BME280;33524;55.434;38.520;2023-02-18T14:23:55;99331.41;;;-3.20;75.75
47761;BME280;33524;55.434;38.520;2023-02-18T14:26:32;99337.81;;;-3.06;75.79
47761;BME280;33524;55.434;38.520;2023-02-18T14:29:07;99337.47;;;-3.21;75.98
47761;BME280;33524;55.434;38.520;2023-02-18T14:31:45;99337.06;;;-3.09;76.13
47761;BME280;33524;55.434;38.520;2023-02-18T14:37:34;99331.28;;;-3.16;76.27
47761;BME280;33524;55.434;38.520;2023-02-18T14:43:16;99329.78;;;-3.23;76.82
47761;BME280;33524;55.434;38.520;2023-02-18T14:51:41;99318.50;;;-3.19;76.67
47761;BME280;33524;55.434;38.520;2023-02-18T14:54:14;99310.06;;;-3.22;76.92
47761;BME280;33524;55.434;38.520;2023-02-18T14:57:05;99306.47;;;-3.18;77.15
47761;BME280;33524;55.434;38.520;2023-02-18T14:59:40;99308.97;;;-3.15;77.06
47761;BME280;33524;55.434;38.520;2023-02-18T15:02:17;99278.56;;;-3.29;77.05
47761;BME280;33524;55.434;38.520;2023-02-18T15:04:48;99296.75;;;-3.09;77.07
47761;BME280;33524;55.434;38.520;2023-02-18T15:07:19;99301.03;;;-3.09;77.02
47761;BME280;33524;55.434;38.520;2023-02-18T15:09:51;99295.75;;;-3.05;76.71
47761;BME280;33524;55.434;38.520;2023-02-18T15:12:22;99295.84;;;-3.08;76.04
47761;BME280;33524;55.434;38.520;2023-02-18T15:14:52;99292.78;;;-3.19;76.60
47761;BME280;33524;55.434;38.520;2023-02-18T15:17:25;99293.38;;;-3.36;76.94
47761;BME280;33524;55.434;38.520;2023-02-18T15:19:59;99291.72;;;-3.12;76.28